createdAt,value
2022-08-21T00:00:23.457Z,2.30
2022-08-21T00:03:02.107Z,2.42
2022-08-21T00:05:29.729Z,2.30
2022-08-21T00:07:57.046Z,2.38
2022-08-21T00:10:24.964Z,2.67
2022-08-21T00:12:52.051Z,2.90
2022-08-21T00:15:24.245Z,2.55
2022-08-21T00:17:50.892Z,2.70
2022-08-21T00:20:17.962Z,2.83
2022-08-21T00:22:45.959Z,2.40
2022-08-21T00:25:14.607Z,2.58
2022-08-21T00:27:43.197Z,2.60
2022-08-21T00:30:22.867Z,2.47
2022-08-21T00:32:51.347Z,2.58
2022-08-21T00:35:20.275Z,2.15
2022-08-21T00:37:47.055Z,2.70
2022-08-21T00:40:17.434Z,3.20
2022-08-21T00:42:44.815Z,2.58
2022-08-21T00:45:21.081Z,2.55
2022-08-21T00:47:47.724Z,3.25
2022-08-21T00:50:15.057Z,3.20
2022-08-21T00:52:51.046Z,2.53
2022-08-21T00:55:18.782Z,2.90
2022-08-21T00:57:50.374Z,2.53
2022-08-21T01:00:22.168Z,2.72
2022-08-21T01:02:49.414Z,2.63
2022-08-21T01:05:16.411Z,2.78
2022-08-21T01:07:43.145Z,3.10
2022-08-21T01:10:10.321Z,2.47
2022-08-21T01:12:47.283Z,2.60
2022-08-21T01:15:15.813Z,3.17
2022-08-21T01:17:42.602Z,3.08
2022-08-21T01:20:11.802Z,2.47
2022-08-21T01:22:38.887Z,3.00
2022-08-21T01:25:06.923Z,2.70
2022-08-21T01:27:33.586Z,2.50
2022-08-21T01:30:25.300Z,2.30
2022-08-21T01:32:52.894Z,2.92
2022-08-21T01:35:20.702Z,3.20
2022-08-21T01:37:48.546Z,2.67
2022-08-21T01:40:18.445Z,2.58
2022-08-21T01:42:46.611Z,2.95
2022-08-21T01:45:15.213Z,2.63
2022-08-21T01:47:42.618Z,2.58
2022-08-21T01:50:14.612Z,3.13
2022-08-21T01:52:41.693Z,3.00
2022-08-21T01:55:09.614Z,2.83
2022-08-21T01:57:36.415Z,3.30
2022-08-21T02:00:06.763Z,3.00
2022-08-21T02:02:39.783Z,3.53
2022-08-21T02:05:06.921Z,3.03
2022-08-21T02:07:42.812Z,2.75
2022-08-21T02:10:11.264Z,2.88
2022-08-21T02:12:37.884Z,2.72
2022-08-21T02:15:05.761Z,2.88
2022-08-21T02:17:44.264Z,3.10
2022-08-21T02:20:13.147Z,2.92
2022-08-21T02:22:39.766Z,2.97
2022-08-21T02:25:06.847Z,2.78
2022-08-21T02:27:39.792Z,2.90
2022-08-21T02:30:08.458Z,3.35
2022-08-21T02:32:35.061Z,3.88
2022-08-21T02:35:01.686Z,2.95
2022-08-21T02:37:28.399Z,3.20
2022-08-21T02:39:55.296Z,2.88
2022-08-21T02:42:22.166Z,3.38
2022-08-21T02:44:49.026Z,3.60
2022-08-21T02:47:15.726Z,3.53
2022-08-21T02:49:42.652Z,3.80
2022-08-21T02:52:09.354Z,3.38
2022-08-21T02:54:36.073Z,3.40
2022-08-21T02:57:02.841Z,3.22
2022-08-21T02:59:29.495Z,2.95
2022-08-21T03:01:56.847Z,2.97
2022-08-21T03:04:23.582Z,3.28
2022-08-21T03:06:50.223Z,3.30
2022-08-21T03:09:16.883Z,3.45
2022-08-21T03:11:43.779Z,3.20
2022-08-21T03:14:10.638Z,3.17
2022-08-21T03:16:37.421Z,3.15
2022-08-21T03:19:04.498Z,3.40
2022-08-21T03:21:31.497Z,2.92
2022-08-21T03:23:58.120Z,2.75
2022-08-21T03:26:25.305Z,3.25
2022-08-21T03:28:52.077Z,3.28
2022-08-21T03:31:19.314Z,3.33
2022-08-21T03:33:46.055Z,3.53
2022-08-21T03:36:12.782Z,3.03
2022-08-21T03:38:40.542Z,3.15
2022-08-21T03:41:08.250Z,3.17
2022-08-21T03:43:35.095Z,3.10
2022-08-21T03:46:04.291Z,3.30
2022-08-21T03:48:31.421Z,3.40
2022-08-21T03:50:58.363Z,3.60
2022-08-21T03:53:25.868Z,3.80
2022-08-21T03:55:53.519Z,3.47
2022-08-21T03:58:23.290Z,3.17
2022-08-21T04:00:51.221Z,3.50
2022-08-21T04:03:18.573Z,4.35
2022-08-21T04:05:46.766Z,4.28
2022-08-21T04:08:15.351Z,4.18
2022-08-21T04:10:42.119Z,3.63
2022-08-21T04:13:09.279Z,4.57
2022-08-21T04:15:36.314Z,4.85
2022-08-21T04:18:04.831Z,4.97
2022-08-21T04:20:31.787Z,4.32
2022-08-21T04:22:58.597Z,4.22
2022-08-21T04:25:26.386Z,4.15
2022-08-21T04:27:53.231Z,3.92
2022-08-21T04:30:20.287Z,3.38
2022-08-21T04:32:49.625Z,4.53
2022-08-21T04:35:22.443Z,3.78
2022-08-21T04:37:49.474Z,3.25
2022-08-21T04:40:18.237Z,4.32
2022-08-21T04:43:06.440Z,3.70
2022-08-21T04:45:37.695Z,3.75
2022-08-21T04:48:10.735Z,3.83
2022-08-21T04:50:51.307Z,4.38
2022-08-21T04:53:43.207Z,3.63
2022-08-21T04:56:13.050Z,3.85
2022-08-21T04:58:42.468Z,3.95
2022-08-21T05:01:13.676Z,3.60
2022-08-21T05:03:41.410Z,3.00
2022-08-21T05:06:11.622Z,3.38
2022-08-21T05:08:39.311Z,3.15
2022-08-21T05:11:06.159Z,3.10
2022-08-21T05:13:34.115Z,2.72
2022-08-21T05:16:00.826Z,3.35
2022-08-21T05:18:27.402Z,2.90
2022-08-21T05:20:54.154Z,3.10
2022-08-21T05:23:20.803Z,2.50
2022-08-21T05:25:47.586Z,3.05
2022-08-21T05:28:15.398Z,2.70
2022-08-21T05:30:42.177Z,3.65
2022-08-21T05:33:08.798Z,3.58
2022-08-21T05:35:35.745Z,3.13
2022-08-21T05:38:02.931Z,3.03
2022-08-21T05:40:29.957Z,3.13
2022-08-21T05:42:57.729Z,2.83
2022-08-21T05:45:41.835Z,2.65
2022-08-21T05:48:13.519Z,2.60
2022-08-21T05:50:40.546Z,3.22
2022-08-21T05:53:08.018Z,2.78
2022-08-21T05:55:40.197Z,2.60
2022-08-21T05:58:09.563Z,3.13
2022-08-21T06:00:36.202Z,3.15
2022-08-21T06:03:02.854Z,2.58
2022-08-21T06:05:36.370Z,2.80
2022-08-21T06:08:04.935Z,3.00
2022-08-21T06:10:32.039Z,2.83
2022-08-21T06:12:58.819Z,3.05
2022-08-21T06:15:25.641Z,2.65
2022-08-21T06:17:54.073Z,2.75
2022-08-21T06:20:21.074Z,2.47
2022-08-21T06:22:47.870Z,2.65
2022-08-21T06:25:14.707Z,2.88
2022-08-21T06:27:41.446Z,2.75
2022-08-21T06:30:08.904Z,2.63
2022-08-21T06:32:36.083Z,2.70
2022-08-21T06:35:03.329Z,2.58
2022-08-21T06:37:30.089Z,2.63
2022-08-21T06:39:56.933Z,3.10
2022-08-21T06:42:26.923Z,2.58
2022-08-21T06:44:55.399Z,2.38
2022-08-21T06:47:22.088Z,2.92
2022-08-21T06:49:48.843Z,2.92
2022-08-21T06:52:16.417Z,2.38
2022-08-21T06:54:43.348Z,2.38
2022-08-21T06:57:10.076Z,2.80
2022-08-21T06:59:36.709Z,2.40
2022-08-21T07:02:03.753Z,2.17
2022-08-21T07:04:30.770Z,2.05
2022-08-21T07:06:57.546Z,2.20
2022-08-21T07:09:24.909Z,2.50
2022-08-21T07:11:55.824Z,2.38
2022-08-21T07:14:23.152Z,2.80
2022-08-21T07:16:51.629Z,2.35
2022-08-21T07:19:18.743Z,2.30
2022-08-21T07:21:45.352Z,2.45
2022-08-21T07:24:12.076Z,2.40
2022-08-21T07:26:39.216Z,2.35
2022-08-21T07:29:05.987Z,2.50
2022-08-21T07:31:33.143Z,2.30
2022-08-21T07:34:00.037Z,2.40
2022-08-21T07:36:26.988Z,3.28
2022-08-21T07:38:53.953Z,2.22
2022-08-21T07:41:23.906Z,2.60
2022-08-21T07:43:52.810Z,2.20
2022-08-21T07:46:20.488Z,1.88
2022-08-21T07:48:47.256Z,2.08
2022-08-21T07:51:15.285Z,2.30
2022-08-21T07:53:42.326Z,2.10
2022-08-21T07:56:09.359Z,2.17
2022-08-21T07:58:36.032Z,2.50
2022-08-21T08:01:02.809Z,2.58
2022-08-21T08:03:29.577Z,2.20
2022-08-21T08:05:57.504Z,2.53
2022-08-21T08:08:24.649Z,2.45
2022-08-21T08:10:51.622Z,2.20
2022-08-21T08:13:18.341Z,2.20
2022-08-21T08:15:44.956Z,2.30
2022-08-21T08:18:11.676Z,2.10
2022-08-21T08:20:38.448Z,2.67
2022-08-21T08:23:05.164Z,2.13
2022-08-21T08:25:35.452Z,1.85
2022-08-21T08:28:16.686Z,2.20
2022-08-21T08:30:45.404Z,2.05
2022-08-21T08:33:12.555Z,2.10
2022-08-21T08:35:39.481Z,1.92
2022-08-21T08:38:06.799Z,1.77
2022-08-21T08:40:47.626Z,2.00
2022-08-21T08:43:14.996Z,2.00
2022-08-21T08:45:47.838Z,1.98
2022-08-21T08:48:27.836Z,2.20
2022-08-21T08:50:57.390Z,1.90
2022-08-21T08:53:32.495Z,2.00
2022-08-21T08:56:01.597Z,2.05
2022-08-21T08:58:31.674Z,2.00
2022-08-21T09:03:26.182Z,1.92
2022-08-21T09:06:05.087Z,2.00
2022-08-21T09:09:00.465Z,2.42
2022-08-21T09:11:39.208Z,2.20
2022-08-21T09:14:12.472Z,2.33
2022-08-21T09:17:00.752Z,2.25
2022-08-21T09:19:52.151Z,1.98
2022-08-21T09:22:31.866Z,2.10
2022-08-21T09:25:25.815Z,1.90
2022-08-21T09:27:52.764Z,1.98
2022-08-21T09:30:26.819Z,2.05
2022-08-21T09:32:53.771Z,1.92
2022-08-21T09:35:22.401Z,1.98
2022-08-21T09:38:03.892Z,1.73
2022-08-21T09:40:36.419Z,1.75
2022-08-21T09:43:12.005Z,2.30
2022-08-21T09:45:40.179Z,2.10
2022-08-21T09:48:18.745Z,1.65
2022-08-21T09:50:45.899Z,1.77
2022-08-21T09:53:32.640Z,1.75
2022-08-21T09:56:34.532Z,1.50
2022-08-21T09:59:01.184Z,2.03
2022-08-21T10:01:27.957Z,2.25
2022-08-21T10:04:11.354Z,1.80
2022-08-21T10:06:38.700Z,2.00
2022-08-21T10:09:16.919Z,1.73
2022-08-21T10:12:20.943Z,1.65
2022-08-21T10:14:47.546Z,1.80
2022-08-21T10:17:34.196Z,1.67
2022-08-21T10:20:08.083Z,1.92
2022-08-21T10:22:53.094Z,1.70
2022-08-21T10:25:34.465Z,1.70
2022-08-21T10:28:22.640Z,1.83
2022-08-21T10:30:57.740Z,1.83
2022-08-21T10:33:37.888Z,2.00
2022-08-21T10:36:11.263Z,1.98
2022-08-21T10:42:04.327Z,1.50
2022-08-21T10:44:42.691Z,2.00
2022-08-21T10:47:33.690Z,1.80
2022-08-21T10:50:16.527Z,1.40
2022-08-21T10:52:58.758Z,1.92
2022-08-21T10:55:36.054Z,1.80
2022-08-21T10:58:11.512Z,1.65
2022-08-21T11:00:45.246Z,1.70
2022-08-21T11:03:17.524Z,1.90
2022-08-21T11:05:51.702Z,1.80
2022-08-21T11:08:39.773Z,1.80
2022-08-21T11:11:53.772Z,2.10
2022-08-21T11:14:50.147Z,1.65
2022-08-21T11:17:21.963Z,1.50
2022-08-21T11:19:58.059Z,1.45
2022-08-21T11:22:29.739Z,1.80
2022-08-21T11:25:36.421Z,1.67
2022-08-21T11:28:14.449Z,1.65
2022-08-21T11:30:59.327Z,2.03
2022-08-21T11:33:44.594Z,1.77
2022-08-21T11:36:23.648Z,1.80
2022-08-21T11:39:22.732Z,1.63
2022-08-21T11:42:12.478Z,1.60
2022-08-21T11:45:04.541Z,1.77
2022-08-21T11:47:59.357Z,1.30
2022-08-21T11:50:35.716Z,1.45
2022-08-21T11:53:25.516Z,1.45
2022-08-21T11:55:58.519Z,1.60
2022-08-21T11:58:33.979Z,1.52
2022-08-21T12:01:12.435Z,1.52
2022-08-21T12:03:42.984Z,1.95
2022-08-21T12:06:24.148Z,1.77
2022-08-21T12:08:59.646Z,1.50
2022-08-21T12:11:30.574Z,1.60
2022-08-21T12:14:14.440Z,1.67
2022-08-21T12:16:46.692Z,2.03
2022-08-21T12:19:25.655Z,1.88
2022-08-21T12:21:59.597Z,1.88
2022-08-21T12:24:29.303Z,2.30
2022-08-21T12:27:02.401Z,1.83
2022-08-21T12:29:30.172Z,1.70
2022-08-21T12:32:09.039Z,2.60
2022-08-21T12:34:59.112Z,1.52
2022-08-21T12:40:04.799Z,1.80
2022-08-21T12:42:38.455Z,1.70
2022-08-21T12:45:15.974Z,1.80
2022-08-21T12:47:49.899Z,1.75
2022-08-21T12:50:33.835Z,2.40
2022-08-21T12:53:06.625Z,2.15
2022-08-21T12:55:47.489Z,2.08
2022-08-21T12:58:22.509Z,2.10
2022-08-21T13:00:54.573Z,1.92
2022-08-21T13:03:22.595Z,1.80
2022-08-21T13:05:49.544Z,2.08
2022-08-21T13:08:16.533Z,2.10
2022-08-21T13:10:44.491Z,2.03
2022-08-21T13:13:25.610Z,2.15
2022-08-21T13:16:05.195Z,2.30
2022-08-21T13:18:35.959Z,1.77
2022-08-21T13:21:13.412Z,1.90
2022-08-21T13:23:40.404Z,2.10
2022-08-21T13:26:19.334Z,2.15
2022-08-21T13:28:48.327Z,2.10
2022-08-21T13:31:22.179Z,1.63
2022-08-21T13:33:49.627Z,1.83
2022-08-21T13:36:21.958Z,1.92
2022-08-21T13:38:49.500Z,2.00
2022-08-21T13:41:16.764Z,2.13
2022-08-21T13:43:52.404Z,1.90
2022-08-21T13:46:21.894Z,1.65
2022-08-21T13:48:48.669Z,1.63
2022-08-21T13:51:15.491Z,1.75
2022-08-21T13:53:42.009Z,1.88
2022-08-21T13:56:09.289Z,1.73
2022-08-21T13:58:47.181Z,1.83
2022-08-21T14:01:24.897Z,2.20
2022-08-21T14:03:54.765Z,1.67
2022-08-21T14:06:24.116Z,2.00
2022-08-21T14:08:53.740Z,1.67
2022-08-21T14:11:20.747Z,1.90
2022-08-21T14:14:04.766Z,1.95
2022-08-21T14:17:00.496Z,1.48
2022-08-21T14:19:38.796Z,1.70
2022-08-21T14:22:32.683Z,1.83
2022-08-21T14:25:17.074Z,1.67
2022-08-21T14:27:46.058Z,1.95
2022-08-21T14:30:19.056Z,1.80
2022-08-21T14:32:46.542Z,1.95
2022-08-21T14:35:13.670Z,1.63
2022-08-21T14:37:43.943Z,1.70
2022-08-21T14:40:12.068Z,1.77
2022-08-21T14:42:44.618Z,1.45
2022-08-21T14:45:16.705Z,1.70
2022-08-21T14:47:44.623Z,1.70
2022-08-21T14:50:12.977Z,1.75
2022-08-21T14:52:40.994Z,1.80
2022-08-21T14:55:09.115Z,1.42
2022-08-21T14:57:36.038Z,1.98
2022-08-21T15:00:04.814Z,1.63
2022-08-21T15:02:31.520Z,1.52
2022-08-21T15:04:58.207Z,1.73
2022-08-21T15:07:24.841Z,1.80
2022-08-21T15:09:51.559Z,1.63
2022-08-21T15:12:18.296Z,2.00
2022-08-21T15:14:45.159Z,1.80
2022-08-21T15:17:13.105Z,2.05
2022-08-21T15:19:40.452Z,1.88
2022-08-21T15:22:15.470Z,2.25
2022-08-21T15:24:45.695Z,2.10
2022-08-21T15:27:13.358Z,1.88
2022-08-21T15:29:43.691Z,1.83
2022-08-21T15:32:17.577Z,1.90
2022-08-21T15:34:44.255Z,2.00
2022-08-21T15:37:10.975Z,2.40
2022-08-21T15:39:38.974Z,2.15
2022-08-21T15:42:10.957Z,1.85
2022-08-21T15:44:40.088Z,2.10
2022-08-21T15:47:08.435Z,2.25
2022-08-21T15:49:35.230Z,2.15
2022-08-21T15:52:01.910Z,1.52
2022-08-21T15:54:28.507Z,1.75
2022-08-21T15:56:55.307Z,2.03
2022-08-21T15:59:23.287Z,1.75
2022-08-21T16:01:51.307Z,1.90
2022-08-21T16:04:24.462Z,2.05
2022-08-21T16:06:53.248Z,1.80
2022-08-21T16:09:22.715Z,2.13
2022-08-21T16:11:49.552Z,1.75
2022-08-21T16:14:16.906Z,2.30
2022-08-21T16:16:43.947Z,2.10
2022-08-21T16:19:11.860Z,2.08
2022-08-21T16:21:38.814Z,2.08
2022-08-21T16:24:05.733Z,1.88
2022-08-21T16:26:32.661Z,2.20
2022-08-21T16:29:01.277Z,1.90
2022-08-21T16:31:28.015Z,1.85
2022-08-21T16:33:57.872Z,3.38
2022-08-21T16:36:28.515Z,2.30
2022-08-21T16:38:56.489Z,2.10
2022-08-21T16:41:24.577Z,2.15
2022-08-21T16:43:52.424Z,2.80
2022-08-21T16:46:20.723Z,1.77
2022-08-21T16:48:47.479Z,1.92
2022-08-21T16:51:15.012Z,1.77
2022-08-21T16:53:42.819Z,1.90
2022-08-21T16:56:10.963Z,2.10
2022-08-21T16:58:40.171Z,1.67
2022-08-21T17:01:10.421Z,2.40
2022-08-21T17:03:43.572Z,2.22
2022-08-21T17:06:10.343Z,1.75
2022-08-21T17:08:37.798Z,1.70
2022-08-21T17:11:09.847Z,1.75
2022-08-21T17:13:36.623Z,2.80
2022-08-21T17:16:03.755Z,2.30
2022-08-21T17:18:30.470Z,1.90
2022-08-21T17:20:57.085Z,1.80
2022-08-21T17:23:23.943Z,1.90
2022-08-21T17:25:52.946Z,1.92
2022-08-21T17:28:24.269Z,1.95
2022-08-21T17:30:52.550Z,2.10
2022-08-21T17:33:19.539Z,2.08
2022-08-21T17:35:46.525Z,2.33
2022-08-21T17:38:14.708Z,2.22
2022-08-21T17:40:42.631Z,1.90
2022-08-21T17:43:12.940Z,2.10
2022-08-21T17:45:40.351Z,1.88
2022-08-21T17:48:07.647Z,2.65
2022-08-21T17:50:34.641Z,1.80
2022-08-21T17:53:01.309Z,2.20
2022-08-21T17:55:29.335Z,2.00
2022-08-21T17:57:56.735Z,1.92
2022-08-21T18:00:25.580Z,1.67
2022-08-21T18:03:20.581Z,1.92
2022-08-21T18:05:48.517Z,1.85
2022-08-21T18:08:15.271Z,1.92
2022-08-21T18:10:45.122Z,1.73
2022-08-21T18:13:14.978Z,1.75
2022-08-21T18:15:46.584Z,1.85
2022-08-21T18:18:13.218Z,1.70
2022-08-21T18:20:39.995Z,1.70
2022-08-21T18:23:06.874Z,1.83
2022-08-21T18:25:34.431Z,1.58
2022-08-21T18:28:06.879Z,1.75
2022-08-21T18:30:37.985Z,1.85
2022-08-21T18:33:04.870Z,1.50
2022-08-21T18:35:32.546Z,1.35
2022-08-21T18:37:59.390Z,1.58
2022-08-21T18:40:26.314Z,1.58
2022-08-21T18:42:55.741Z,1.83
2022-08-21T18:45:23.828Z,1.92
2022-08-21T18:47:52.544Z,1.40
2022-08-21T18:50:21.868Z,1.50
2022-08-21T18:52:53.498Z,1.42
2022-08-21T18:55:21.903Z,1.20
2022-08-21T18:57:48.667Z,1.48
2022-08-21T19:00:18.647Z,1.90
2022-08-21T19:02:45.475Z,1.63
2022-08-21T19:05:14.627Z,1.42
2022-08-21T19:07:41.456Z,1.77
2022-08-21T19:10:27.842Z,1.52
2022-08-21T19:13:00.016Z,1.50
2022-08-21T19:15:27.519Z,1.52
2022-08-21T19:17:56.215Z,1.45
2022-08-21T19:20:36.414Z,1.70
2022-08-21T19:25:34.717Z,1.33
2022-08-21T19:28:10.992Z,1.20
2022-08-21T19:30:41.127Z,1.30
2022-08-21T19:33:08.856Z,1.13
2022-08-21T19:35:35.593Z,1.38
2022-08-21T19:38:02.332Z,1.38
2022-08-21T19:40:31.820Z,1.30
2022-08-21T19:42:58.650Z,1.00
2022-08-21T19:45:28.971Z,1.50
2022-08-21T19:47:56.139Z,1.60
2022-08-21T19:50:25.783Z,1.40
2022-08-21T19:52:52.491Z,1.60
2022-08-21T19:55:23.218Z,1.30
2022-08-21T19:57:50.292Z,1.65
2022-08-21T20:00:17.944Z,1.30
2022-08-21T20:02:47.851Z,1.38
2022-08-21T20:05:15.933Z,1.30
2022-08-21T20:07:45.459Z,1.08
2022-08-21T20:10:13.342Z,1.35
2022-08-21T20:12:40.987Z,1.33
2022-08-21T20:15:09.192Z,1.58
2022-08-21T20:17:36.083Z,1.48
2022-08-21T20:20:03.230Z,1.30
2022-08-21T20:22:29.950Z,1.20
2022-08-21T20:24:56.598Z,1.20
2022-08-21T20:27:25.579Z,1.23
2022-08-21T20:29:52.275Z,1.20
2022-08-21T20:32:19.088Z,1.17
2022-08-21T20:34:52.171Z,1.42
2022-08-21T20:37:35.880Z,1.48
2022-08-21T20:40:10.268Z,1.60
2022-08-21T20:42:39.983Z,1.27
2022-08-21T20:45:08.632Z,1.50
2022-08-21T20:47:36.515Z,1.10
2022-08-21T20:50:13.077Z,1.50
2022-08-21T20:52:41.744Z,1.08
2022-08-21T20:55:14.750Z,1.15
2022-08-21T20:58:09.328Z,1.05
2022-08-21T21:00:43.064Z,1.10
2022-08-21T21:03:15.075Z,1.08
2022-08-21T21:05:58.972Z,1.42
2022-08-21T21:08:32.747Z,1.20
2022-08-21T21:11:03.815Z,1.05
2022-08-21T21:13:59.756Z,1.30
2022-08-21T21:16:41.999Z,1.25
2022-08-21T21:19:25.724Z,1.02
2022-08-21T21:22:11.208Z,1.15
2022-08-21T21:24:51.317Z,1.15
2022-08-21T21:27:38.454Z,1.20
2022-08-21T21:30:22.152Z,1.00
2022-08-21T21:32:49.394Z,1.00
2022-08-21T21:35:32.651Z,1.33
2022-08-21T21:38:35.656Z,1.00
2022-08-21T21:41:17.835Z,1.20
2022-08-21T21:44:03.358Z,1.20
2022-08-21T21:46:53.896Z,1.05
2022-08-21T21:49:33.204Z,1.25
2022-08-21T21:52:26.811Z,1.10
2022-08-21T21:55:03.718Z,0.93
2022-08-21T21:57:53.918Z,1.25
2022-08-21T22:00:26.476Z,1.00
2022-08-21T22:03:26.326Z,1.27
2022-08-21T22:06:19.177Z,1.30
2022-08-21T22:08:59.636Z,1.30
2022-08-21T22:14:22.801Z,1.10
2022-08-21T22:16:50.611Z,0.95
2022-08-21T22:19:24.447Z,1.10
2022-08-21T22:22:09.594Z,0.90
2022-08-21T22:24:40.242Z,1.08
2022-08-21T22:27:12.004Z,0.90
2022-08-21T22:29:53.447Z,0.98
2022-08-21T22:32:28.817Z,0.90
2022-08-21T22:35:18.335Z,1.10
2022-08-21T22:37:56.931Z,1.20
2022-08-21T22:40:34.963Z,1.00
2022-08-21T22:43:07.719Z,0.82
2022-08-21T22:46:06.013Z,1.20
2022-08-21T22:51:41.833Z,1.00
2022-08-21T22:54:33.306Z,1.20
2022-08-21T22:57:04.758Z,1.52
2022-08-21T22:59:35.441Z,0.90
2022-08-21T23:04:45.278Z,0.90
2022-08-21T23:07:12.176Z,1.20
2022-08-21T23:09:48.593Z,0.90
2022-08-21T23:12:35.380Z,1.20
2022-08-21T23:15:07.183Z,0.93
2022-08-21T23:17:53.352Z,1.00
2022-08-21T23:20:42.652Z,1.10
2022-08-21T23:23:27.155Z,1.02
2022-08-21T23:26:12.315Z,1.00
2022-08-21T23:29:07.703Z,1.08
2022-08-21T23:31:51.102Z,0.90
2022-08-21T23:34:32.277Z,1.10
2022-08-21T23:37:48.439Z,0.95
2022-08-21T23:40:37.940Z,0.93
2022-08-21T23:43:17.168Z,0.88
2022-08-21T23:46:14.176Z,1.00
2022-08-21T23:48:56.416Z,1.00
2022-08-21T23:54:22.535Z,1.02
2022-08-21T23:56:57.927Z,0.90
2022-08-21T23:59:37.307Z,1.40
